sensor_id;sensor_type;location;lat;lon;timestamp;P1;durP1;ratioP1;P2;durP2;ratioP2
5754;SDS011;2902;42.130;24.732;2023-07-08T00:00:11;8.60;;;8.00;;
5754;SDS011;2902;42.130;24.732;2023-07-08T00:02:40;9.07;;;8.20;;
5754;SDS011;2902;42.130;24.732;2023-07-08T00:05:08;8.63;;;8.10;;
5754;SDS011;2902;42.130;24.732;2023-07-08T00:07:35;8.93;;;8.23;;
5754;SDS011;2902;42.130;24.732;2023-07-08T00:10:05;8.87;;;8.23;;
5754;SDS011;2902;42.130;24.732;2023-07-08T00:12:39;8.77;;;8.10;;
5754;SDS011;2902;42.130;24.732;2023-07-08T00:15:06;9.23;;;8.50;;
5754;SDS011;2902;42.130;24.732;2023-07-08T00:17:33;9.60;;;8.80;;
5754;SDS011;2902;42.130;24.732;2023-07-08T00:20:00;9.50;;;8.70;;
5754;SDS011;2902;42.130;24.732;2023-07-08T00:22:26;9.43;;;8.63;;
5754;SDS011;2902;42.130;24.732;2023-07-08T00:24:53;8.97;;;8.37;;
5754;SDS011;2902;42.130;24.732;2023-07-08T00:27:20;9.17;;;8.43;;
5754;SDS011;2902;42.130;24.732;2023-07-08T00:29:48;9.23;;;8.53;;
5754;SDS011;2902;42.130;24.732;2023-07-08T00:32:15;8.33;;;7.80;;
5754;SDS011;2902;42.130;24.732;2023-07-08T00:34:42;9.13;;;8.37;;
5754;SDS011;2902;42.130;24.732;2023-07-08T00:37:09;8.77;;;8.17;;
5754;SDS011;2902;42.130;24.732;2023-07-08T00:39:37;8.13;;;7.63;;
5754;SDS011;2902;42.130;24.732;2023-07-08T00:42:06;9.03;;;8.23;;
5754;SDS011;2902;42.130;24.732;2023-07-08T00:44:40;12.47;;;8.30;;
5754;SDS011;2902;42.130;24.732;2023-07-08T00:47:09;9.00;;;8.30;;
5754;SDS011;2902;42.130;24.732;2023-07-08T00:49:39;9.27;;;8.57;;
5754;SDS011;2902;42.130;24.732;2023-07-08T00:52:16;8.00;;;7.40;;
5754;SDS011;2902;42.130;24.732;2023-07-08T00:54:45;8.30;;;7.70;;
5754;SDS011;2902;42.130;24.732;2023-07-08T00:57:12;9.03;;;8.33;;
5754;SDS011;2902;42.130;24.732;2023-07-08T00:59:39;8.80;;;7.97;;
5754;SDS011;2902;42.130;24.732;2023-07-08T01:02:11;8.47;;;7.80;;
5754;SDS011;2902;42.130;24.732;2023-07-08T01:04:43;8.50;;;7.90;;
5754;SDS011;2902;42.130;24.732;2023-07-08T01:07:15;9.10;;;8.23;;
5754;SDS011;2902;42.130;24.732;2023-07-08T01:09:47;7.87;;;7.17;;
5754;SDS011;2902;42.130;24.732;2023-07-08T01:12:17;7.20;;;6.70;;
5754;SDS011;2902;42.130;24.732;2023-07-08T01:14:46;8.67;;;7.87;;
5754;SDS011;2902;42.130;24.732;2023-07-08T01:17:16;9.07;;;8.03;;
5754;SDS011;2902;42.130;24.732;2023-07-08T01:19:43;8.30;;;7.67;;
5754;SDS011;2902;42.130;24.732;2023-07-08T01:22:12;9.47;;;8.07;;
5754;SDS011;2902;42.130;24.732;2023-07-08T01:24:39;9.17;;;8.30;;
5754;SDS011;2902;42.130;24.732;2023-07-08T01:27:08;9.07;;;8.03;;
5754;SDS011;2902;42.130;24.732;2023-07-08T01:29:37;8.83;;;8.20;;
5754;SDS011;2902;42.130;24.732;2023-07-08T01:32:04;9.13;;;8.40;;
5754;SDS011;2902;42.130;24.732;2023-07-08T01:34:32;8.90;;;8.17;;
5754;SDS011;2902;42.130;24.732;2023-07-08T01:36:59;9.17;;;8.47;;
5754;SDS011;2902;42.130;24.732;2023-07-08T01:39:30;9.60;;;8.60;;
5754;SDS011;2902;42.130;24.732;2023-07-08T01:41:58;8.47;;;7.97;;
5754;SDS011;2902;42.130;24.732;2023-07-08T01:44:27;9.17;;;8.47;;
5754;SDS011;2902;42.130;24.732;2023-07-08T01:46:55;10.50;;;8.00;;
5754;SDS011;2902;42.130;24.732;2023-07-08T01:49:26;8.73;;;7.93;;
5754;SDS011;2902;42.130;24.732;2023-07-08T01:51:53;8.67;;;7.97;;
5754;SDS011;2902;42.130;24.732;2023-07-08T01:54:21;8.47;;;7.87;;
5754;SDS011;2902;42.130;24.732;2023-07-08T01:56:49;8.63;;;8.03;;
5754;SDS011;2902;42.130;24.732;2023-07-08T01:59:21;10.73;;;8.20;;
5754;SDS011;2902;42.130;24.732;2023-07-08T02:01:48;8.30;;;7.70;;
5754;SDS011;2902;42.130;24.732;2023-07-08T02:04:19;8.73;;;7.87;;
5754;SDS011;2902;42.130;24.732;2023-07-08T02:06:50;9.23;;;8.33;;
5754;SDS011;2902;42.130;24.732;2023-07-08T02:09:17;8.63;;;8.13;;
5754;SDS011;2902;42.130;24.732;2023-07-08T02:11:43;8.77;;;8.17;;
5754;SDS011;2902;42.130;24.732;2023-07-08T02:14:11;10.20;;;8.90;;
5754;SDS011;2902;42.130;24.732;2023-07-08T02:16:38;10.87;;;9.17;;
5754;SDS011;2902;42.130;24.732;2023-07-08T02:19:05;10.23;;;9.37;;
5754;SDS011;2902;42.130;24.732;2023-07-08T02:21:31;10.03;;;9.27;;
5754;SDS011;2902;42.130;24.732;2023-07-08T02:23:59;10.40;;;9.47;;
5754;SDS011;2902;42.130;24.732;2023-07-08T02:26:26;10.20;;;9.50;;
5754;SDS011;2902;42.130;24.732;2023-07-08T02:28:53;11.03;;;10.00;;
5754;SDS011;2902;42.130;24.732;2023-07-08T02:31:21;10.40;;;9.60;;
5754;SDS011;2902;42.130;24.732;2023-07-08T02:33:49;10.90;;;10.10;;
5754;SDS011;2902;42.130;24.732;2023-07-08T02:36:16;11.37;;;10.57;;
5754;SDS011;2902;42.130;24.732;2023-07-08T02:38:43;12.00;;;10.77;;
5754;SDS011;2902;42.130;24.732;2023-07-08T02:41:09;12.10;;;11.00;;
5754;SDS011;2902;42.130;24.732;2023-07-08T02:43:37;11.80;;;10.80;;
5754;SDS011;2902;42.130;24.732;2023-07-08T02:46:03;12.40;;;11.27;;
5754;SDS011;2902;42.130;24.732;2023-07-08T02:48:31;13.23;;;12.03;;
5754;SDS011;2902;42.130;24.732;2023-07-08T02:50:58;11.53;;;10.63;;
5754;SDS011;2902;42.130;24.732;2023-07-08T02:53:26;16.00;;;11.07;;
5754;SDS011;2902;42.130;24.732;2023-07-08T02:55:52;17.20;;;12.93;;
5754;SDS011;2902;42.130;24.732;2023-07-08T02:58:19;13.93;;;12.57;;
5754;SDS011;2902;42.130;24.732;2023-07-08T03:00:50;13.80;;;12.47;;
5754;SDS011;2902;42.130;24.732;2023-07-08T03:03:18;14.33;;;13.13;;
5754;SDS011;2902;42.130;24.732;2023-07-08T03:05:49;14.63;;;12.30;;
5754;SDS011;2902;42.130;24.732;2023-07-08T03:08:20;14.20;;;11.83;;
5754;SDS011;2902;42.130;24.732;2023-07-08T03:10:47;13.87;;;12.60;;
5754;SDS011;2902;42.130;24.732;2023-07-08T03:13:14;13.20;;;12.20;;
5754;SDS011;2902;42.130;24.732;2023-07-08T03:15:44;14.63;;;13.20;;
5754;SDS011;2902;42.130;24.732;2023-07-08T03:18:11;13.87;;;12.57;;
5754;SDS011;2902;42.130;24.732;2023-07-08T03:20:39;15.37;;;12.43;;
5754;SDS011;2902;42.130;24.732;2023-07-08T03:23:07;14.03;;;13.03;;
5754;SDS011;2902;42.130;24.732;2023-07-08T03:25:35;13.67;;;12.70;;
5754;SDS011;2902;42.130;24.732;2023-07-08T03:28:02;13.27;;;12.37;;
5754;SDS011;2902;42.130;24.732;2023-07-08T03:30:31;14.40;;;13.00;;
5754;SDS011;2902;42.130;24.732;2023-07-08T03:32:57;15.77;;;13.73;;
5754;SDS011;2902;42.130;24.732;2023-07-08T03:35:24;14.93;;;13.70;;
5754;SDS011;2902;42.130;24.732;2023-07-08T03:37:51;16.60;;;14.70;;
5754;SDS011;2902;42.130;24.732;2023-07-08T03:40:19;16.47;;;14.90;;
5754;SDS011;2902;42.130;24.732;2023-07-08T03:42:46;16.63;;;15.10;;
5754;SDS011;2902;42.130;24.732;2023-07-08T03:45:13;19.00;;;14.63;;
5754;SDS011;2902;42.130;24.732;2023-07-08T03:47:40;16.30;;;14.87;;
5754;SDS011;2902;42.130;24.732;2023-07-08T03:50:08;16.30;;;14.90;;
5754;SDS011;2902;42.130;24.732;2023-07-08T03:52:44;16.00;;;14.53;;
5754;SDS011;2902;42.130;24.732;2023-07-08T03:55:11;16.40;;;14.83;;
5754;SDS011;2902;42.130;24.732;2023-07-08T03:57:39;15.70;;;14.20;;
5754;SDS011;2902;42.130;24.732;2023-07-08T04:00:06;17.50;;;15.70;;
5754;SDS011;2902;42.130;24.732;2023-07-08T04:02:35;15.83;;;14.40;;
5754;SDS011;2902;42.130;24.732;2023-07-08T04:05:01;16.33;;;14.87;;
5754;SDS011;2902;42.130;24.732;2023-07-08T04:07:28;16.17;;;14.33;;
5754;SDS011;2902;42.130;24.732;2023-07-08T04:09:55;15.83;;;14.43;;
5754;SDS011;2902;42.130;24.732;2023-07-08T04:12:22;15.77;;;14.33;;
5754;SDS011;2902;42.130;24.732;2023-07-08T04:14:50;14.93;;;13.83;;
5754;SDS011;2902;42.130;24.732;2023-07-08T04:17:17;15.73;;;14.53;;
5754;SDS011;2902;42.130;24.732;2023-07-08T04:19:44;14.90;;;13.60;;
5754;SDS011;2902;42.130;24.732;2023-07-08T04:22:11;15.10;;;13.70;;
5754;SDS011;2902;42.130;24.732;2023-07-08T04:24:38;15.50;;;14.07;;
5754;SDS011;2902;42.130;24.732;2023-07-08T04:27:05;15.00;;;13.23;;
5754;SDS011;2902;42.130;24.732;2023-07-08T04:29:34;14.10;;;12.97;;
5754;SDS011;2902;42.130;24.732;2023-07-08T04:32:02;15.83;;;14.00;;
5754;SDS011;2902;42.130;24.732;2023-07-08T04:34:29;14.43;;;13.33;;
5754;SDS011;2902;42.130;24.732;2023-07-08T04:36:56;13.93;;;12.83;;
5754;SDS011;2902;42.130;24.732;2023-07-08T04:39:23;12.90;;;12.00;;
5754;SDS011;2902;42.130;24.732;2023-07-08T04:41:49;14.27;;;12.73;;
5754;SDS011;2902;42.130;24.732;2023-07-08T04:44:16;14.07;;;12.87;;
5754;SDS011;2902;42.130;24.732;2023-07-08T04:46:44;14.33;;;12.90;;
5754;SDS011;2902;42.130;24.732;2023-07-08T04:49:14;13.50;;;12.43;;
5754;SDS011;2902;42.130;24.732;2023-07-08T04:51:41;13.83;;;12.83;;
5754;SDS011;2902;42.130;24.732;2023-07-08T04:54:08;13.20;;;12.10;;
5754;SDS011;2902;42.130;24.732;2023-07-08T04:56:36;13.33;;;11.30;;
5754;SDS011;2902;42.130;24.732;2023-07-08T04:59:05;12.27;;;11.37;;
5754;SDS011;2902;42.130;24.732;2023-07-08T05:01:34;12.23;;;11.47;;
5754;SDS011;2902;42.130;24.732;2023-07-08T05:04:01;12.77;;;11.50;;
5754;SDS011;2902;42.130;24.732;2023-07-08T05:06:31;13.00;;;12.10;;
5754;SDS011;2902;42.130;24.732;2023-07-08T05:08:58;13.67;;;11.40;;
5754;SDS011;2902;42.130;24.732;2023-07-08T05:11:26;12.13;;;10.83;;
5754;SDS011;2902;42.130;24.732;2023-07-08T05:13:52;12.63;;;9.80;;
5754;SDS011;2902;42.130;24.732;2023-07-08T05:16:19;12.77;;;10.70;;
5754;SDS011;2902;42.130;24.732;2023-07-08T05:18:46;11.47;;;10.57;;
5754;SDS011;2902;42.130;24.732;2023-07-08T05:21:12;11.83;;;10.50;;
5754;SDS011;2902;42.130;24.732;2023-07-08T05:23:41;10.63;;;9.83;;
5754;SDS011;2902;42.130;24.732;2023-07-08T05:26:09;11.23;;;10.13;;
5754;SDS011;2902;42.130;24.732;2023-07-08T05:28:36;11.60;;;10.50;;
5754;SDS011;2902;42.130;24.732;2023-07-08T05:31:02;12.77;;;10.50;;
5754;SDS011;2902;42.130;24.732;2023-07-08T05:33:30;11.77;;;10.40;;
5754;SDS011;2902;42.130;24.732;2023-07-08T05:35:57;11.47;;;10.37;;
5754;SDS011;2902;42.130;24.732;2023-07-08T05:38:24;11.07;;;9.90;;
5754;SDS011;2902;42.130;24.732;2023-07-08T05:40:55;11.87;;;9.77;;
5754;SDS011;2902;42.130;24.732;2023-07-08T05:43:22;12.17;;;11.37;;
5754;SDS011;2902;42.130;24.732;2023-07-08T05:45:49;10.70;;;10.10;;
5754;SDS011;2902;42.130;24.732;2023-07-08T05:48:16;10.97;;;10.03;;
5754;SDS011;2902;42.130;24.732;2023-07-08T05:50:44;11.53;;;10.03;;
5754;SDS011;2902;42.130;24.732;2023-07-08T05:53:11;10.63;;;9.87;;
5754;SDS011;2902;42.130;24.732;2023-07-08T05:55:39;9.97;;;9.27;;
5754;SDS011;2902;42.130;24.732;2023-07-08T05:58:08;10.23;;;9.37;;
5754;SDS011;2902;42.130;24.732;2023-07-08T06:00:35;9.07;;;8.50;;
5754;SDS011;2902;42.130;24.732;2023-07-08T06:03:02;10.13;;;9.30;;
5754;SDS011;2902;42.130;24.732;2023-07-08T06:05:29;12.13;;;11.07;;
5754;SDS011;2902;42.130;24.732;2023-07-08T06:07:58;12.87;;;11.70;;
5754;SDS011;2902;42.130;24.732;2023-07-08T06:10:24;10.70;;;9.90;;
5754;SDS011;2902;42.130;24.732;2023-07-08T06:12:51;11.83;;;10.93;;
5754;SDS011;2902;42.130;24.732;2023-07-08T06:15:19;12.67;;;9.27;;
5754;SDS011;2902;42.130;24.732;2023-07-08T06:17:46;10.77;;;10.07;;
5754;SDS011;2902;42.130;24.732;2023-07-08T06:20:13;14.20;;;11.17;;
5754;SDS011;2902;42.130;24.732;2023-07-08T06:22:40;9.40;;;8.57;;
5754;SDS011;2902;42.130;24.732;2023-07-08T06:25:07;10.70;;;9.53;;
5754;SDS011;2902;42.130;24.732;2023-07-08T06:27:34;9.10;;;8.43;;
5754;SDS011;2902;42.130;24.732;2023-07-08T06:30:01;9.50;;;8.83;;
5754;SDS011;2902;42.130;24.732;2023-07-08T06:32:29;9.37;;;8.40;;
5754;SDS011;2902;42.130;24.732;2023-07-08T06:34:56;8.23;;;7.63;;
5754;SDS011;2902;42.130;24.732;2023-07-08T06:37:23;8.63;;;7.90;;
5754;SDS011;2902;42.130;24.732;2023-07-08T06:39:49;7.50;;;6.83;;
5754;SDS011;2902;42.130;24.732;2023-07-08T06:42:16;8.00;;;7.43;;
5754;SDS011;2902;42.130;24.732;2023-07-08T06:44:43;6.53;;;6.10;;
5754;SDS011;2902;42.130;24.732;2023-07-08T06:47:15;8.23;;;6.07;;
5754;SDS011;2902;42.130;24.732;2023-07-08T06:49:43;6.80;;;6.30;;
5754;SDS011;2902;42.130;24.732;2023-07-08T06:52:10;7.17;;;6.50;;
5754;SDS011;2902;42.130;24.732;2023-07-08T06:54:36;7.77;;;6.27;;
5754;SDS011;2902;42.130;24.732;2023-07-08T06:57:03;6.33;;;5.77;;
5754;SDS011;2902;42.130;24.732;2023-07-08T06:59:30;6.73;;;5.93;;
5754;SDS011;2902;42.130;24.732;2023-07-08T07:01:57;6.00;;;5.63;;
5754;SDS011;2902;42.130;24.732;2023-07-08T07:04:24;5.93;;;5.17;;
5754;SDS011;2902;42.130;24.732;2023-07-08T07:06:52;6.07;;;5.60;;
5754;SDS011;2902;42.130;24.732;2023-07-08T07:09:19;6.53;;;5.33;;
5754;SDS011;2902;42.130;24.732;2023-07-08T07:11:45;5.80;;;4.80;;
5754;SDS011;2902;42.130;24.732;2023-07-08T07:14:12;7.57;;;5.07;;
5754;SDS011;2902;42.130;24.732;2023-07-08T07:16:39;6.17;;;4.30;;
5754;SDS011;2902;42.130;24.732;2023-07-08T07:19:07;5.33;;;4.73;;
5754;SDS011;2902;42.130;24.732;2023-07-08T07:21:33;6.37;;;4.37;;
5754;SDS011;2902;42.130;24.732;2023-07-08T07:24:01;4.67;;;4.27;;
5754;SDS011;2902;42.130;24.732;2023-07-08T07:26:28;5.00;;;4.30;;
5754;SDS011;2902;42.130;24.732;2023-07-08T07:28:55;11.27;;;4.77;;
5754;SDS011;2902;42.130;24.732;2023-07-08T07:31:22;5.40;;;4.90;;
5754;SDS011;2902;42.130;24.732;2023-07-08T07:33:49;5.03;;;4.60;;
5754;SDS011;2902;42.130;24.732;2023-07-08T07:36:16;6.17;;;4.83;;
5754;SDS011;2902;42.130;24.732;2023-07-08T07:38:42;4.93;;;4.63;;
5754;SDS011;2902;42.130;24.732;2023-07-08T07:41:10;5.27;;;4.77;;
5754;SDS011;2902;42.130;24.732;2023-07-08T07:43:37;6.10;;;4.90;;
5754;SDS011;2902;42.130;24.732;2023-07-08T07:46:04;5.70;;;4.53;;
5754;SDS011;2902;42.130;24.732;2023-07-08T07:48:33;6.27;;;5.00;;
5754;SDS011;2902;42.130;24.732;2023-07-08T07:50:59;6.23;;;5.00;;
5754;SDS011;2902;42.130;24.732;2023-07-08T07:53:26;9.03;;;5.03;;
5754;SDS011;2902;42.130;24.732;2023-07-08T07:55:56;5.47;;;4.97;;
5754;SDS011;2902;42.130;24.732;2023-07-08T07:58:25;7.83;;;4.80;;
5754;SDS011;2902;42.130;24.732;2023-07-08T08:00:52;5.63;;;4.93;;
5754;SDS011;2902;42.130;24.732;2023-07-08T08:03:19;4.83;;;4.33;;
5754;SDS011;2902;42.130;24.732;2023-07-08T08:05:46;6.57;;;4.57;;
5754;SDS011;2902;42.130;24.732;2023-07-08T08:08:13;5.63;;;4.60;;
5754;SDS011;2902;42.130;24.732;2023-07-08T08:10:39;4.83;;;4.53;;
5754;SDS011;2902;42.130;24.732;2023-07-08T08:13:06;4.93;;;4.20;;
5754;SDS011;2902;42.130;24.732;2023-07-08T08:15:35;6.20;;;4.00;;
5754;SDS011;2902;42.130;24.732;2023-07-08T08:18:02;7.67;;;3.90;;
5754;SDS011;2902;42.130;24.732;2023-07-08T08:20:29;5.27;;;4.43;;
5754;SDS011;2902;42.130;24.732;2023-07-08T08:22:56;5.00;;;4.57;;
5754;SDS011;2902;42.130;24.732;2023-07-08T08:25:23;5.57;;;3.83;;
5754;SDS011;2902;42.130;24.732;2023-07-08T08:27:50;3.70;;;3.40;;
5754;SDS011;2902;42.130;24.732;2023-07-08T08:30:17;7.17;;;4.40;;
5754;SDS011;2902;42.130;24.732;2023-07-08T08:32:46;4.73;;;4.33;;
5754;SDS011;2902;42.130;24.732;2023-07-08T08:35:12;5.93;;;4.07;;
5754;SDS011;2902;42.130;24.732;2023-07-08T08:37:39;5.57;;;4.17;;
5754;SDS011;2902;42.130;24.732;2023-07-08T08:40:07;4.57;;;3.77;;
5754;SDS011;2902;42.130;24.732;2023-07-08T08:42:40;20.93;;;5.00;;
5754;SDS011;2902;42.130;24.732;2023-07-08T08:45:09;10.33;;;3.50;;
5754;SDS011;2902;42.130;24.732;2023-07-08T08:47:40;5.05;;;4.65;;
5754;SDS011;2902;42.130;24.732;2023-07-08T08:50:16;6.47;;;4.25;;
5754;SDS011;2902;42.130;24.732;2023-07-08T08:52:50;4.22;;;3.83;;
5754;SDS011;2902;42.130;24.732;2023-07-08T08:55:20;3.70;;;3.40;;
5754;SDS011;2902;42.130;24.732;2023-07-08T08:57:48;4.30;;;3.60;;
5754;SDS011;2902;42.130;24.732;2023-07-08T09:00:24;8.45;;;4.15;;
5754;SDS011;2902;42.130;24.732;2023-07-08T09:02:57;7.13;;;3.23;;
5754;SDS011;2902;42.130;24.732;2023-07-08T09:05:29;4.03;;;3.63;;
5754;SDS011;2902;42.130;24.732;2023-07-08T09:08:00;5.33;;;3.57;;
5754;SDS011;2902;42.130;24.732;2023-07-08T09:10:34;6.43;;;4.07;;
5754;SDS011;2902;42.130;24.732;2023-07-08T09:13:11;6.47;;;3.20;;
5754;SDS011;2902;42.130;24.732;2023-07-08T09:15:44;4.73;;;3.20;;
5754;SDS011;2902;42.130;24.732;2023-07-08T09:18:14;6.50;;;3.80;;
5754;SDS011;2902;42.130;24.732;2023-07-08T09:20:48;3.37;;;3.17;;
5754;SDS011;2902;42.130;24.732;2023-07-08T09:23:18;3.63;;;3.30;;
5754;SDS011;2902;42.130;24.732;2023-07-08T09:25:49;3.80;;;3.37;;
5754;SDS011;2902;42.130;24.732;2023-07-08T09:28:20;3.50;;;3.17;;
5754;SDS011;2902;42.130;24.732;2023-07-08T09:30:47;3.90;;;3.00;;
5754;SDS011;2902;42.130;24.732;2023-07-08T09:33:15;3.80;;;3.50;;
5754;SDS011;2902;42.130;24.732;2023-07-08T09:35:42;4.37;;;4.07;;
5754;SDS011;2902;42.130;24.732;2023-07-08T09:38:14;3.97;;;3.67;;
5754;SDS011;2902;42.130;24.732;2023-07-08T09:40:46;4.17;;;3.77;;
5754;SDS011;2902;42.130;24.732;2023-07-08T09:43:16;3.93;;;3.63;;
5754;SDS011;2902;42.130;24.732;2023-07-08T09:45:50;5.57;;;3.87;;
5754;SDS011;2902;42.130;24.732;2023-07-08T09:48:18;3.50;;;3.30;;
5754;SDS011;2902;42.130;24.732;2023-07-08T09:50:48;4.13;;;3.60;;
5754;SDS011;2902;42.130;24.732;2023-07-08T09:53:18;4.07;;;3.57;;
5754;SDS011;2902;42.130;24.732;2023-07-08T09:55:45;4.57;;;3.60;;
5754;SDS011;2902;42.130;24.732;2023-07-08T09:58:19;3.53;;;3.30;;
5754;SDS011;2902;42.130;24.732;2023-07-08T10:00:51;4.93;;;3.63;;
5754;SDS011;2902;42.130;24.732;2023-07-08T10:03:22;4.30;;;3.77;;
5754;SDS011;2902;42.130;24.732;2023-07-08T10:05:51;4.13;;;3.80;;
5754;SDS011;2902;42.130;24.732;2023-07-08T10:08:37;5.80;;;3.43;;
5754;SDS011;2902;42.130;24.732;2023-07-08T10:11:10;4.50;;;3.80;;
5754;SDS011;2902;42.130;24.732;2023-07-08T10:13:54;8.80;;;3.80;;
5754;SDS011;2902;42.130;24.732;2023-07-08T10:16:26;11.00;;;3.97;;
5754;SDS011;2902;42.130;24.732;2023-07-08T10:18:54;3.70;;;3.28;;
5754;SDS011;2902;42.130;24.732;2023-07-08T10:21:26;3.90;;;3.60;;
5754;SDS011;2902;42.130;24.732;2023-07-08T10:24:07;4.17;;;3.97;;
5754;SDS011;2902;42.130;24.732;2023-07-08T10:26:57;3.73;;;3.10;;
5754;SDS011;2902;42.130;24.732;2023-07-08T10:29:32;3.83;;;3.63;;
5754;SDS011;2902;42.130;24.732;2023-07-08T10:32:06;3.70;;;3.40;;
5754;SDS011;2902;42.130;24.732;2023-07-08T10:34:46;3.27;;;3.07;;
5754;SDS011;2902;42.130;24.732;2023-07-08T10:37:22;4.00;;;3.50;;
5754;SDS011;2902;42.130;24.732;2023-07-08T10:39:57;3.55;;;3.35;;
5754;SDS011;2902;42.130;24.732;2023-07-08T10:42:48;3.67;;;3.28;;
5754;SDS011;2902;42.130;24.732;2023-07-08T10:45:26;4.05;;;3.63;;
5754;SDS011;2902;42.130;24.732;2023-07-08T10:48:04;4.05;;;3.40;;
5754;SDS011;2902;42.130;24.732;2023-07-08T10:50:48;4.68;;;3.50;;
5754;SDS011;2902;42.130;24.732;2023-07-08T10:53:35;5.47;;;3.22;;
5754;SDS011;2902;42.130;24.732;2023-07-08T10:56:13;5.50;;;3.13;;
5754;SDS011;2902;42.130;24.732;2023-07-08T10:59:04;5.82;;;3.40;;
5754;SDS011;2902;42.130;24.732;2023-07-08T11:01:43;3.20;;;3.03;;
5754;SDS011;2902;42.130;24.732;2023-07-08T11:04:29;4.05;;;3.70;;
5754;SDS011;2902;42.130;24.732;2023-07-08T11:07:11;3.05;;;2.70;;
5754;SDS011;2902;42.130;24.732;2023-07-08T11:09:44;3.10;;;3.00;;
5754;SDS011;2902;42.130;24.732;2023-07-08T11:12:20;3.50;;;3.20;;
5754;SDS011;2902;42.130;24.732;2023-07-08T11:14:56;2.70;;;2.60;;
5754;SDS011;2902;42.130;24.732;2023-07-08T11:17:27;4.05;;;3.58;;
5754;SDS011;2902;42.130;24.732;2023-07-08T11:20:01;3.03;;;2.92;;
5754;SDS011;2902;42.130;24.732;2023-07-08T11:22:33;7.47;;;3.08;;
5754;SDS011;2902;42.130;24.732;2023-07-08T11:25:03;3.30;;;3.10;;
5754;SDS011;2902;42.130;24.732;2023-07-08T11:27:41;3.85;;;2.92;;
5754;SDS011;2902;42.130;24.732;2023-07-08T11:30:12;5.38;;;3.15;;
5754;SDS011;2902;42.130;24.732;2023-07-08T11:32:42;4.80;;;3.30;;
5754;SDS011;2902;42.130;24.732;2023-07-08T11:35:15;7.22;;;3.40;;
5754;SDS011;2902;42.130;24.732;2023-07-08T11:37:46;5.93;;;3.30;;
5754;SDS011;2902;42.130;24.732;2023-07-08T11:40:18;4.07;;;3.63;;
5754;SDS011;2902;42.130;24.732;2023-07-08T11:42:48;3.90;;;3.70;;
5754;SDS011;2902;42.130;24.732;2023-07-08T11:45:23;3.97;;;3.65;;
5754;SDS011;2902;42.130;24.732;2023-07-08T11:47:52;6.38;;;2.95;;
5754;SDS011;2902;42.130;24.732;2023-07-08T11:50:20;4.10;;;3.65;;
5754;SDS011;2902;42.130;24.732;2023-07-08T11:52:52;9.13;;;3.30;;
5754;SDS011;2902;42.130;24.732;2023-07-08T11:55:22;3.90;;;3.53;;
5754;SDS011;2902;42.130;24.732;2023-07-08T11:57:55;3.50;;;3.20;;
5754;SDS011;2902;42.130;24.732;2023-07-08T12:00:23;3.92;;;3.63;;
5754;SDS011;2902;42.130;24.732;2023-07-08T12:02:55;4.00;;;3.75;;
5754;SDS011;2902;42.130;24.732;2023-07-08T12:05:30;4.00;;;3.30;;
5754;SDS011;2902;42.130;24.732;2023-07-08T12:07:58;4.18;;;3.55;;
5754;SDS011;2902;42.130;24.732;2023-07-08T12:10:28;3.00;;;2.83;;
5754;SDS011;2902;42.130;24.732;2023-07-08T12:13:01;5.43;;;3.28;;
5754;SDS011;2902;42.130;24.732;2023-07-08T12:15:29;5.00;;;3.08;;
5754;SDS011;2902;42.130;24.732;2023-07-08T12:17:58;3.35;;;3.05;;
5754;SDS011;2902;42.130;24.732;2023-07-08T12:20:29;3.72;;;3.47;;
5754;SDS011;2902;42.130;24.732;2023-07-08T12:22:57;4.32;;;4.03;;
5754;SDS011;2902;42.130;24.732;2023-07-08T12:25:26;4.10;;;3.40;;
5754;SDS011;2902;42.130;24.732;2023-07-08T12:27:54;3.37;;;3.17;;
5754;SDS011;2902;42.130;24.732;2023-07-08T12:30:23;3.50;;;3.30;;
5754;SDS011;2902;42.130;24.732;2023-07-08T12:32:54;5.80;;;3.53;;
5754;SDS011;2902;42.130;24.732;2023-07-08T12:35:24;5.43;;;3.77;;
5754;SDS011;2902;42.130;24.732;2023-07-08T12:37:53;4.43;;;4.03;;
5754;SDS011;2902;42.130;24.732;2023-07-08T12:40:22;4.87;;;2.87;;
5754;SDS011;2902;42.130;24.732;2023-07-08T12:42:51;3.13;;;2.93;;
5754;SDS011;2902;42.130;24.732;2023-07-08T12:45:21;9.43;;;3.10;;
5754;SDS011;2902;42.130;24.732;2023-07-08T12:47:51;5.10;;;2.80;;
5754;SDS011;2902;42.130;24.732;2023-07-08T12:50:18;3.63;;;2.90;;
5754;SDS011;2902;42.130;24.732;2023-07-08T12:52:45;3.83;;;3.63;;
5754;SDS011;2902;42.130;24.732;2023-07-08T12:55:13;3.67;;;3.37;;
5754;SDS011;2902;42.130;24.732;2023-07-08T12:57:42;3.15;;;2.90;;
5754;SDS011;2902;42.130;24.732;2023-07-08T13:00:15;3.50;;;3.20;;
5754;SDS011;2902;42.130;24.732;2023-07-08T13:02:51;3.50;;;3.30;;
5754;SDS011;2902;42.130;24.732;2023-07-08T13:05:23;3.17;;;2.93;;
5754;SDS011;2902;42.130;24.732;2023-07-08T13:07:50;3.93;;;3.37;;
5754;SDS011;2902;42.130;24.732;2023-07-08T13:10:18;5.07;;;3.20;;
5754;SDS011;2902;42.130;24.732;2023-07-08T13:12:47;5.53;;;3.03;;
5754;SDS011;2902;42.130;24.732;2023-07-08T13:15:18;3.40;;;2.83;;
5754;SDS011;2902;42.130;24.732;2023-07-08T13:17:51;3.43;;;3.23;;
5754;SDS011;2902;42.130;24.732;2023-07-08T13:20:18;2.93;;;2.30;;
5754;SDS011;2902;42.130;24.732;2023-07-08T13:22:50;3.90;;;2.53;;
5754;SDS011;2902;42.130;24.732;2023-07-08T13:25:20;4.73;;;2.37;;
5754;SDS011;2902;42.130;24.732;2023-07-08T13:27:57;2.87;;;2.33;;
5754;SDS011;2902;42.130;24.732;2023-07-08T13:30:26;5.57;;;2.27;;
5754;SDS011;2902;42.130;24.732;2023-07-08T13:32:55;7.67;;;4.50;;
5754;SDS011;2902;42.130;24.732;2023-07-08T13:35:24;5.20;;;3.10;;
5754;SDS011;2902;42.130;24.732;2023-07-08T13:37:53;3.63;;;2.47;;
5754;SDS011;2902;42.130;24.732;2023-07-08T13:40:21;2.47;;;1.90;;
5754;SDS011;2902;42.130;24.732;2023-07-08T13:42:49;5.13;;;1.50;;
5754;SDS011;2902;42.130;24.732;2023-07-08T13:45:17;4.73;;;1.93;;
5754;SDS011;2902;42.130;24.732;2023-07-08T13:47:58;2.30;;;1.67;;
5754;SDS011;2902;42.130;24.732;2023-07-08T13:50:29;2.67;;;2.20;;
5754;SDS011;2902;42.130;24.732;2023-07-08T13:53:16;3.17;;;1.80;;
5754;SDS011;2902;42.130;24.732;2023-07-08T13:55:46;2.13;;;1.80;;
5754;SDS011;2902;42.130;24.732;2023-07-08T13:58:14;2.67;;;1.40;;
5754;SDS011;2902;42.130;24.732;2023-07-08T14:00:42;1.77;;;1.60;;
5754;SDS011;2902;42.130;24.732;2023-07-08T14:03:11;1.70;;;1.60;;
5754;SDS011;2902;42.130;24.732;2023-07-08T14:05:43;5.43;;;2.47;;
5754;SDS011;2902;42.130;24.732;2023-07-08T14:08:12;7.60;;;3.10;;
5754;SDS011;2902;42.130;24.732;2023-07-08T14:10:42;4.23;;;2.73;;
5754;SDS011;2902;42.130;24.732;2023-07-08T14:13:10;3.13;;;2.93;;
5754;SDS011;2902;42.130;24.732;2023-07-08T14:15:37;3.67;;;3.00;;
5754;SDS011;2902;42.130;24.732;2023-07-08T14:18:07;3.17;;;2.97;;
5754;SDS011;2902;42.130;24.732;2023-07-08T14:20:37;2.43;;;2.23;;
5754;SDS011;2902;42.130;24.732;2023-07-08T14:23:04;3.53;;;2.33;;
5754;SDS011;2902;42.130;24.732;2023-07-08T14:25:31;2.10;;;2.00;;
5754;SDS011;2902;42.130;24.732;2023-07-08T14:27:58;2.53;;;2.33;;
5754;SDS011;2902;42.130;24.732;2023-07-08T14:30:24;2.30;;;2.10;;
5754;SDS011;2902;42.130;24.732;2023-07-08T14:32:51;2.17;;;1.80;;
5754;SDS011;2902;42.130;24.732;2023-07-08T14:35:20;3.80;;;1.70;;
5754;SDS011;2902;42.130;24.732;2023-07-08T14:37:50;2.27;;;1.80;;
5754;SDS011;2902;42.130;24.732;2023-07-08T14:40:19;1.97;;;1.87;;
5754;SDS011;2902;42.130;24.732;2023-07-08T14:42:51;6.73;;;6.40;;
5754;SDS011;2902;42.130;24.732;2023-07-08T14:45:22;2.20;;;2.10;;
5754;SDS011;2902;42.130;24.732;2023-07-08T14:47:50;3.67;;;2.30;;
5754;SDS011;2902;42.130;24.732;2023-07-08T14:50:17;3.33;;;2.30;;
5754;SDS011;2902;42.130;24.732;2023-07-08T14:52:45;3.40;;;2.47;;
5754;SDS011;2902;42.130;24.732;2023-07-08T14:55:12;4.60;;;2.83;;
5754;SDS011;2902;42.130;24.732;2023-07-08T14:57:40;2.83;;;2.33;;
5754;SDS011;2902;42.130;24.732;2023-07-08T15:00:12;2.70;;;2.23;;
5754;SDS011;2902;42.130;24.732;2023-07-08T15:02:41;3.40;;;2.10;;
5754;SDS011;2902;42.130;24.732;2023-07-08T15:05:19;10.43;;;2.30;;
5754;SDS011;2902;42.130;24.732;2023-07-08T15:07:52;2.37;;;2.00;;